sensor_id;sensor_type;location;lat;lon;timestamp;P1;durP1;ratioP1;P2;durP2;ratioP2
25503;SDS011;13410;52.114;5.718;2023-09-07T00:01:45;10.07;;;7.22;;
25503;SDS011;13410;52.114;5.718;2023-09-07T00:04:11;7.60;;;6.20;;
25503;SDS011;13410;52.114;5.718;2023-09-07T00:06:37;9.98;;;6.50;;
25503;SDS011;13410;52.114;5.718;2023-09-07T00:09:04;8.80;;;6.68;;
25503;SDS011;13410;52.114;5.718;2023-09-07T00:11:30;7.93;;;6.47;;
25503;SDS011;13410;52.114;5.718;2023-09-07T00:13:57;8.05;;;6.65;;
25503;SDS011;13410;52.114;5.718;2023-09-07T00:16:24;6.93;;;6.00;;
25503;SDS011;13410;52.114;5.718;2023-09-07T00:18:50;8.80;;;6.18;;
25503;SDS011;13410;52.114;5.718;2023-09-07T00:21:15;7.72;;;6.55;;
25503;SDS011;13410;52.114;5.718;2023-09-07T00:23:41;8.70;;;6.65;;
25503;SDS011;13410;52.114;5.718;2023-09-07T00:26:07;7.40;;;6.45;;
25503;SDS011;13410;52.114;5.718;2023-09-07T00:28:33;7.05;;;6.18;;
25503;SDS011;13410;52.114;5.718;2023-09-07T00:30:58;7.47;;;6.15;;
25503;SDS011;13410;52.114;5.718;2023-09-07T00:33:24;8.82;;;6.10;;
25503;SDS011;13410;52.114;5.718;2023-09-07T00:35:49;10.00;;;6.00;;
25503;SDS011;13410;52.114;5.718;2023-09-07T00:38:15;8.68;;;6.53;;
25503;SDS011;13410;52.114;5.718;2023-09-07T00:40:43;8.02;;;5.95;;
25503;SDS011;13410;52.114;5.718;2023-09-07T00:43:10;7.18;;;5.88;;
25503;SDS011;13410;52.114;5.718;2023-09-07T00:45:36;6.57;;;5.82;;
25503;SDS011;13410;52.114;5.718;2023-09-07T00:48:02;7.47;;;5.82;;
25503;SDS011;13410;52.114;5.718;2023-09-07T00:50:28;9.82;;;5.85;;
25503;SDS011;13410;52.114;5.718;2023-09-07T00:52:54;6.63;;;5.82;;
25503;SDS011;13410;52.114;5.718;2023-09-07T00:55:19;9.32;;;5.75;;
25503;SDS011;13410;52.114;5.718;2023-09-07T00:57:46;7.30;;;5.85;;
25503;SDS011;13410;52.114;5.718;2023-09-07T01:00:12;6.03;;;5.35;;
25503;SDS011;13410;52.114;5.718;2023-09-07T01:02:38;6.97;;;5.47;;
25503;SDS011;13410;52.114;5.718;2023-09-07T01:05:03;10.48;;;5.90;;
25503;SDS011;13410;52.114;5.718;2023-09-07T01:07:37;7.65;;;5.20;;
25503;SDS011;13410;52.114;5.718;2023-09-07T01:10:15;7.00;;;5.55;;
25503;SDS011;13410;52.114;5.718;2023-09-07T01:12:41;9.80;;;5.30;;
25503;SDS011;13410;52.114;5.718;2023-09-07T01:15:08;7.28;;;5.60;;
25503;SDS011;13410;52.114;5.718;2023-09-07T01:17:35;6.90;;;5.82;;
25503;SDS011;13410;52.114;5.718;2023-09-07T01:20:03;9.45;;;5.93;;
25503;SDS011;13410;52.114;5.718;2023-09-07T01:22:34;8.13;;;6.40;;
25503;SDS011;13410;52.114;5.718;2023-09-07T01:25:01;12.00;;;6.80;;
25503;SDS011;13410;52.114;5.718;2023-09-07T01:27:27;8.93;;;6.80;;
25503;SDS011;13410;52.114;5.718;2023-09-07T01:29:53;8.43;;;6.63;;
25503;SDS011;13410;52.114;5.718;2023-09-07T01:32:19;7.65;;;6.45;;
25503;SDS011;13410;52.114;5.718;2023-09-07T01:34:45;8.80;;;6.80;;
25503;SDS011;13410;52.114;5.718;2023-09-07T01:37:10;9.73;;;6.35;;
25503;SDS011;13410;52.114;5.718;2023-09-07T01:39:36;11.75;;;6.82;;
25503;SDS011;13410;52.114;5.718;2023-09-07T01:42:02;6.07;;;5.22;;
25503;SDS011;13410;52.114;5.718;2023-09-07T01:44:27;6.88;;;5.65;;
25503;SDS011;13410;52.114;5.718;2023-09-07T01:46:54;8.40;;;6.47;;
25503;SDS011;13410;52.114;5.718;2023-09-07T01:49:20;7.95;;;6.25;;
25503;SDS011;13410;52.114;5.718;2023-09-07T01:51:45;8.95;;;6.38;;
25503;SDS011;13410;52.114;5.718;2023-09-07T01:54:11;7.68;;;6.13;;
25503;SDS011;13410;52.114;5.718;2023-09-07T01:56:37;10.55;;;6.70;;
25503;SDS011;13410;52.114;5.718;2023-09-07T01:59:03;9.40;;;6.45;;
25503;SDS011;13410;52.114;5.718;2023-09-07T02:01:30;12.35;;;6.40;;
25503;SDS011;13410;52.114;5.718;2023-09-07T02:03:57;10.73;;;6.68;;
25503;SDS011;13410;52.114;5.718;2023-09-07T02:06:23;7.38;;;6.45;;
25503;SDS011;13410;52.114;5.718;2023-09-07T02:08:48;9.93;;;6.38;;
25503;SDS011;13410;52.114;5.718;2023-09-07T02:11:14;9.48;;;6.10;;
25503;SDS011;13410;52.114;5.718;2023-09-07T02:13:43;8.57;;;6.13;;
25503;SDS011;13410;52.114;5.718;2023-09-07T02:16:11;7.85;;;6.28;;
25503;SDS011;13410;52.114;5.718;2023-09-07T02:18:37;9.25;;;6.40;;
25503;SDS011;13410;52.114;5.718;2023-09-07T02:21:05;9.38;;;6.45;;
25503;SDS011;13410;52.114;5.718;2023-09-07T02:23:33;10.32;;;6.75;;
25503;SDS011;13410;52.114;5.718;2023-09-07T02:26:00;12.70;;;7.05;;
25503;SDS011;13410;52.114;5.718;2023-09-07T02:28:26;11.73;;;7.63;;
25503;SDS011;13410;52.114;5.718;2023-09-07T02:30:52;10.35;;;7.60;;
25503;SDS011;13410;52.114;5.718;2023-09-07T02:33:17;12.40;;;7.00;;
25503;SDS011;13410;52.114;5.718;2023-09-07T02:35:43;9.20;;;6.88;;
25503;SDS011;13410;52.114;5.718;2023-09-07T02:38:09;10.55;;;7.03;;
25503;SDS011;13410;52.114;5.718;2023-09-07T02:40:46;11.60;;;6.97;;
25503;SDS011;13410;52.114;5.718;2023-09-07T02:43:12;9.50;;;6.82;;
25503;SDS011;13410;52.114;5.718;2023-09-07T02:45:38;8.02;;;6.13;;
25503;SDS011;13410;52.114;5.718;2023-09-07T02:48:04;9.43;;;6.68;;
25503;SDS011;13410;52.114;5.718;2023-09-07T02:50:31;8.80;;;6.53;;
25503;SDS011;13410;52.114;5.718;2023-09-07T02:52:58;7.47;;;5.72;;
25503;SDS011;13410;52.114;5.718;2023-09-07T02:55:27;11.35;;;6.65;;
25503;SDS011;13410;52.114;5.718;2023-09-07T02:57:53;7.35;;;6.40;;
25503;SDS011;13410;52.114;5.718;2023-09-07T03:00:20;9.35;;;6.22;;
25503;SDS011;13410;52.114;5.718;2023-09-07T03:02:46;7.43;;;6.25;;
25503;SDS011;13410;52.114;5.718;2023-09-07T03:05:13;9.35;;;7.28;;
25503;SDS011;13410;52.114;5.718;2023-09-07T03:07:39;8.60;;;6.60;;
25503;SDS011;13410;52.114;5.718;2023-09-07T03:10:06;8.95;;;7.32;;
25503;SDS011;13410;52.114;5.718;2023-09-07T03:12:34;8.25;;;6.47;;
25503;SDS011;13410;52.114;5.718;2023-09-07T03:14:59;7.50;;;6.65;;
25503;SDS011;13410;52.114;5.718;2023-09-07T03:17:28;11.07;;;6.78;;
25503;SDS011;13410;52.114;5.718;2023-09-07T03:19:54;10.27;;;7.20;;
25503;SDS011;13410;52.114;5.718;2023-09-07T03:22:19;10.02;;;7.10;;
25503;SDS011;13410;52.114;5.718;2023-09-07T03:24:45;10.20;;;7.30;;
25503;SDS011;13410;52.114;5.718;2023-09-07T03:27:10;10.70;;;6.78;;
25503;SDS011;13410;52.114;5.718;2023-09-07T03:29:36;10.57;;;6.95;;
25503;SDS011;13410;52.114;5.718;2023-09-07T03:32:02;9.73;;;7.18;;
25503;SDS011;13410;52.114;5.718;2023-09-07T03:34:27;7.60;;;6.18;;
25503;SDS011;13410;52.114;5.718;2023-09-07T03:36:53;9.82;;;6.85;;
25503;SDS011;13410;52.114;5.718;2023-09-07T03:39:19;9.20;;;7.20;;
25503;SDS011;13410;52.114;5.718;2023-09-07T03:41:47;9.00;;;6.85;;
25503;SDS011;13410;52.114;5.718;2023-09-07T03:44:12;9.10;;;6.63;;
25503;SDS011;13410;52.114;5.718;2023-09-07T03:46:38;11.80;;;7.15;;
25503;SDS011;13410;52.114;5.718;2023-09-07T03:49:03;7.15;;;6.43;;
25503;SDS011;13410;52.114;5.718;2023-09-07T03:51:29;10.93;;;6.72;;
25503;SDS011;13410;52.114;5.718;2023-09-07T03:53:54;10.98;;;7.00;;
25503;SDS011;13410;52.114;5.718;2023-09-07T03:56:20;9.30;;;6.97;;
25503;SDS011;13410;52.114;5.718;2023-09-07T03:58:45;8.48;;;6.63;;
25503;SDS011;13410;52.114;5.718;2023-09-07T04:01:15;8.25;;;6.85;;
25503;SDS011;13410;52.114;5.718;2023-09-07T04:03:40;8.50;;;6.53;;
25503;SDS011;13410;52.114;5.718;2023-09-07T04:06:06;8.70;;;6.72;;
25503;SDS011;13410;52.114;5.718;2023-09-07T04:08:32;8.27;;;6.85;;
25503;SDS011;13410;52.114;5.718;2023-09-07T04:10:58;11.32;;;6.85;;
25503;SDS011;13410;52.114;5.718;2023-09-07T04:13:27;14.63;;;6.15;;
25503;SDS011;13410;52.114;5.718;2023-09-07T04:15:53;9.52;;;7.25;;
25503;SDS011;13410;52.114;5.718;2023-09-07T04:18:18;7.90;;;6.07;;
25503;SDS011;13410;52.114;5.718;2023-09-07T04:20:44;8.10;;;6.32;;
25503;SDS011;13410;52.114;5.718;2023-09-07T04:23:09;6.82;;;6.10;;
25503;SDS011;13410;52.114;5.718;2023-09-07T04:25:35;7.82;;;6.53;;
25503;SDS011;13410;52.114;5.718;2023-09-07T04:28:01;9.40;;;6.53;;
25503;SDS011;13410;52.114;5.718;2023-09-07T04:30:27;11.80;;;6.28;;
25503;SDS011;13410;52.114;5.718;2023-09-07T04:32:52;8.20;;;6.40;;
25503;SDS011;13410;52.114;5.718;2023-09-07T04:35:18;10.70;;;6.35;;
25503;SDS011;13410;52.114;5.718;2023-09-07T04:37:44;10.05;;;6.38;;
25503;SDS011;13410;52.114;5.718;2023-09-07T04:40:10;8.10;;;6.05;;
25503;SDS011;13410;52.114;5.718;2023-09-07T04:42:36;8.30;;;6.25;;
25503;SDS011;13410;52.114;5.718;2023-09-07T04:45:04;11.57;;;7.03;;
25503;SDS011;13410;52.114;5.718;2023-09-07T04:47:30;8.05;;;6.57;;
25503;SDS011;13410;52.114;5.718;2023-09-07T04:49:56;9.25;;;6.40;;
25503;SDS011;13410;52.114;5.718;2023-09-07T04:52:22;8.38;;;6.57;;
25503;SDS011;13410;52.114;5.718;2023-09-07T04:54:47;8.98;;;6.18;;
25503;SDS011;13410;52.114;5.718;2023-09-07T04:57:15;10.55;;;6.22;;
25503;SDS011;13410;52.114;5.718;2023-09-07T04:59:43;9.93;;;7.15;;
25503;SDS011;13410;52.114;5.718;2023-09-07T05:02:09;8.02;;;6.75;;
25503;SDS011;13410;52.114;5.718;2023-09-07T05:04:36;10.68;;;6.22;;
25503;SDS011;13410;52.114;5.718;2023-09-07T05:07:02;13.50;;;6.38;;
25503;SDS011;13410;52.114;5.718;2023-09-07T05:09:28;12.90;;;6.20;;
25503;SDS011;13410;52.114;5.718;2023-09-07T05:11:54;15.15;;;6.63;;
25503;SDS011;13410;52.114;5.718;2023-09-07T05:14:20;11.95;;;6.10;;
25503;SDS011;13410;52.114;5.718;2023-09-07T05:16:50;12.57;;;6.47;;
25503;SDS011;13410;52.114;5.718;2023-09-07T05:19:16;9.50;;;6.30;;
25503;SDS011;13410;52.114;5.718;2023-09-07T05:21:42;11.65;;;6.60;;
25503;SDS011;13410;52.114;5.718;2023-09-07T05:24:07;15.43;;;6.38;;
25503;SDS011;13410;52.114;5.718;2023-09-07T05:26:33;13.50;;;5.72;;
25503;SDS011;13410;52.114;5.718;2023-09-07T05:28:59;12.93;;;5.05;;
25503;SDS011;13410;52.114;5.718;2023-09-07T05:31:24;11.63;;;5.32;;
25503;SDS011;13410;52.114;5.718;2023-09-07T05:33:50;7.53;;;4.22;;
25503;SDS011;13410;52.114;5.718;2023-09-07T05:36:17;12.57;;;5.78;;
25503;SDS011;13410;52.114;5.718;2023-09-07T05:38:42;12.35;;;5.65;;
25503;SDS011;13410;52.114;5.718;2023-09-07T05:41:08;14.63;;;5.95;;
25503;SDS011;13410;52.114;5.718;2023-09-07T05:43:33;10.75;;;5.82;;
25503;SDS011;13410;52.114;5.718;2023-09-07T05:45:59;10.50;;;5.90;;
25503;SDS011;13410;52.114;5.718;2023-09-07T05:48:25;13.40;;;6.18;;
25503;SDS011;13410;52.114;5.718;2023-09-07T05:50:50;10.55;;;5.80;;
25503;SDS011;13410;52.114;5.718;2023-09-07T05:53:18;9.25;;;7.07;;
25503;SDS011;13410;52.114;5.718;2023-09-07T05:55:44;10.73;;;6.70;;
25503;SDS011;13410;52.114;5.718;2023-09-07T05:58:09;13.90;;;7.40;;
25503;SDS011;13410;52.114;5.718;2023-09-07T06:00:35;10.93;;;7.05;;
25503;SDS011;13410;52.114;5.718;2023-09-07T06:03:01;15.18;;;7.75;;
25503;SDS011;13410;52.114;5.718;2023-09-07T06:05:27;9.90;;;7.47;;
25503;SDS011;13410;52.114;5.718;2023-09-07T06:07:52;10.32;;;7.05;;
25503;SDS011;13410;52.114;5.718;2023-09-07T06:10:18;10.25;;;7.07;;
25503;SDS011;13410;52.114;5.718;2023-09-07T06:12:44;8.50;;;7.65;;
25503;SDS011;13410;52.114;5.718;2023-09-07T06:15:10;10.93;;;8.15;;
25503;SDS011;13410;52.114;5.718;2023-09-07T06:17:37;11.82;;;8.38;;
25503;SDS011;13410;52.114;5.718;2023-09-07T06:20:02;11.88;;;8.45;;
25503;SDS011;13410;52.114;5.718;2023-09-07T06:22:28;12.32;;;8.70;;
25503;SDS011;13410;52.114;5.718;2023-09-07T06:24:54;11.07;;;8.10;;
25503;SDS011;13410;52.114;5.718;2023-09-07T06:27:19;10.43;;;7.72;;
25503;SDS011;13410;52.114;5.718;2023-09-07T06:29:45;13.43;;;8.82;;
25503;SDS011;13410;52.114;5.718;2023-09-07T06:32:11;10.70;;;5.38;;
25503;SDS011;13410;52.114;5.718;2023-09-07T06:34:37;14.50;;;6.80;;
25503;SDS011;13410;52.114;5.718;2023-09-07T06:37:02;12.43;;;6.97;;
25503;SDS011;13410;52.114;5.718;2023-09-07T06:39:28;14.02;;;8.75;;
25503;SDS011;13410;52.114;5.718;2023-09-07T06:41:54;11.52;;;8.35;;
25503;SDS011;13410;52.114;5.718;2023-09-07T06:44:19;12.57;;;8.27;;
25503;SDS011;13410;52.114;5.718;2023-09-07T06:46:45;13.07;;;8.40;;
25503;SDS011;13410;52.114;5.718;2023-09-07T06:49:10;5.68;;;4.75;;
25503;SDS011;13410;52.114;5.718;2023-09-07T06:51:36;17.05;;;8.85;;
25503;SDS011;13410;52.114;5.718;2023-09-07T06:54:02;8.98;;;7.40;;
25503;SDS011;13410;52.114;5.718;2023-09-07T06:56:28;12.52;;;8.10;;
25503;SDS011;13410;52.114;5.718;2023-09-07T06:58:56;10.35;;;6.85;;
25503;SDS011;13410;52.114;5.718;2023-09-07T07:01:21;11.60;;;7.35;;
25503;SDS011;13410;52.114;5.718;2023-09-07T07:03:47;17.58;;;7.30;;
25503;SDS011;13410;52.114;5.718;2023-09-07T07:06:14;11.40;;;5.72;;
25503;SDS011;13410;52.114;5.718;2023-09-07T07:08:39;11.93;;;7.10;;
25503;SDS011;13410;52.114;5.718;2023-09-07T07:11:05;11.93;;;7.32;;
25503;SDS011;13410;52.114;5.718;2023-09-07T07:13:30;15.40;;;7.60;;
25503;SDS011;13410;52.114;5.718;2023-09-07T07:15:56;11.50;;;6.63;;
25503;SDS011;13410;52.114;5.718;2023-09-07T07:18:22;9.30;;;6.85;;
25503;SDS011;13410;52.114;5.718;2023-09-07T07:20:48;7.50;;;5.47;;
25503;SDS011;13410;52.114;5.718;2023-09-07T07:23:15;9.55;;;6.30;;
25503;SDS011;13410;52.114;5.718;2023-09-07T07:25:41;15.70;;;6.18;;
25503;SDS011;13410;52.114;5.718;2023-09-07T07:28:07;13.38;;;6.10;;
25503;SDS011;13410;52.114;5.718;2023-09-07T07:30:33;6.68;;;5.60;;
25503;SDS011;13410;52.114;5.718;2023-09-07T07:32:59;8.43;;;4.95;;
25503;SDS011;13410;52.114;5.718;2023-09-07T07:35:25;10.95;;;6.43;;
25503;SDS011;13410;52.114;5.718;2023-09-07T07:37:51;10.65;;;6.18;;
25503;SDS011;13410;52.114;5.718;2023-09-07T07:40:17;16.30;;;7.30;;
25503;SDS011;13410;52.114;5.718;2023-09-07T07:42:44;12.30;;;7.53;;
25503;SDS011;13410;52.114;5.718;2023-09-07T07:45:11;11.48;;;7.47;;
25503;SDS011;13410;52.114;5.718;2023-09-07T07:47:38;8.82;;;5.07;;
25503;SDS011;13410;52.114;5.718;2023-09-07T07:50:04;9.00;;;6.80;;
25503;SDS011;13410;52.114;5.718;2023-09-07T07:52:30;7.43;;;6.32;;
25503;SDS011;13410;52.114;5.718;2023-09-07T07:54:56;7.05;;;5.55;;
25503;SDS011;13410;52.114;5.718;2023-09-07T07:57:21;7.10;;;5.35;;
25503;SDS011;13410;52.114;5.718;2023-09-07T07:59:47;8.65;;;6.10;;
25503;SDS011;13410;52.114;5.718;2023-09-07T08:02:12;8.48;;;5.80;;
25503;SDS011;13410;52.114;5.718;2023-09-07T08:04:38;10.20;;;5.43;;
25503;SDS011;13410;52.114;5.718;2023-09-07T08:07:04;4.88;;;4.20;;
25503;SDS011;13410;52.114;5.718;2023-09-07T08:09:30;7.75;;;5.50;;
25503;SDS011;13410;52.114;5.718;2023-09-07T08:11:56;9.98;;;4.93;;
25503;SDS011;13410;52.114;5.718;2023-09-07T08:14:22;10.50;;;5.13;;
25503;SDS011;13410;52.114;5.718;2023-09-07T08:16:50;7.57;;;5.20;;
25503;SDS011;13410;52.114;5.718;2023-09-07T08:19:17;8.55;;;4.97;;
25503;SDS011;13410;52.114;5.718;2023-09-07T08:21:43;5.70;;;4.78;;
25503;SDS011;13410;52.114;5.718;2023-09-07T08:24:10;8.25;;;4.40;;
25503;SDS011;13410;52.114;5.718;2023-09-07T08:26:35;5.90;;;4.90;;
25503;SDS011;13410;52.114;5.718;2023-09-07T08:29:01;6.07;;;4.38;;
25503;SDS011;13410;52.114;5.718;2023-09-07T08:31:30;4.80;;;4.30;;
25503;SDS011;13410;52.114;5.718;2023-09-07T08:34:00;8.88;;;4.93;;
25503;SDS011;13410;52.114;5.718;2023-09-07T08:36:35;7.63;;;4.25;;
25503;SDS011;13410;52.114;5.718;2023-09-07T08:39:02;8.18;;;4.28;;
25503;SDS011;13410;52.114;5.718;2023-09-07T08:41:39;6.45;;;4.60;;
25503;SDS011;13410;52.114;5.718;2023-09-07T08:44:16;8.13;;;4.00;;
25503;SDS011;13410;52.114;5.718;2023-09-07T08:46:42;6.28;;;3.90;;
25503;SDS011;13410;52.114;5.718;2023-09-07T08:49:08;5.03;;;4.18;;
25503;SDS011;13410;52.114;5.718;2023-09-07T08:51:37;8.65;;;4.00;;
25503;SDS011;13410;52.114;5.718;2023-09-07T08:54:06;5.47;;;3.80;;
25503;SDS011;13410;52.114;5.718;2023-09-07T08:56:33;5.13;;;3.60;;
25503;SDS011;13410;52.114;5.718;2023-09-07T08:58:59;7.05;;;3.40;;
25503;SDS011;13410;52.114;5.718;2023-09-07T09:01:25;5.68;;;3.30;;
25503;SDS011;13410;52.114;5.718;2023-09-07T09:03:51;3.58;;;3.25;;
25503;SDS011;13410;52.114;5.718;2023-09-07T09:06:18;6.93;;;3.15;;
25503;SDS011;13410;52.114;5.718;2023-09-07T09:08:45;4.15;;;3.70;;
25503;SDS011;13410;52.114;5.718;2023-09-07T09:11:14;5.63;;;3.30;;
25503;SDS011;13410;52.114;5.718;2023-09-07T09:13:40;5.95;;;3.30;;
25503;SDS011;13410;52.114;5.718;2023-09-07T09:16:06;8.20;;;3.40;;
25503;SDS011;13410;52.114;5.718;2023-09-07T09:18:32;5.80;;;3.83;;
25503;SDS011;13410;52.114;5.718;2023-09-07T09:20:57;4.20;;;3.38;;
25503;SDS011;13410;52.114;5.718;2023-09-07T09:23:35;9.23;;;4.28;;
25503;SDS011;13410;52.114;5.718;2023-09-07T09:26:02;6.68;;;3.72;;
25503;SDS011;13410;52.114;5.718;2023-09-07T09:28:30;6.15;;;3.72;;
25503;SDS011;13410;52.114;5.718;2023-09-07T09:30:57;6.32;;;3.75;;
25503;SDS011;13410;52.114;5.718;2023-09-07T09:33:26;4.18;;;3.63;;
25503;SDS011;13410;52.114;5.718;2023-09-07T09:35:53;5.50;;;3.33;;
25503;SDS011;13410;52.114;5.718;2023-09-07T09:38:19;5.65;;;3.60;;
25503;SDS011;13410;52.114;5.718;2023-09-07T09:40:45;7.13;;;3.80;;
25503;SDS011;13410;52.114;5.718;2023-09-07T09:43:10;5.10;;;3.47;;
25503;SDS011;13410;52.114;5.718;2023-09-07T09:45:37;5.40;;;3.70;;
25503;SDS011;13410;52.114;5.718;2023-09-07T09:48:03;3.92;;;3.50;;
25503;SDS011;13410;52.114;5.718;2023-09-07T09:50:30;4.60;;;3.70;;
25503;SDS011;13410;52.114;5.718;2023-09-07T09:52:56;6.22;;;3.88;;
25503;SDS011;13410;52.114;5.718;2023-09-07T09:55:23;4.20;;;3.80;;
25503;SDS011;13410;52.114;5.718;2023-09-07T09:57:49;6.07;;;3.70;;
25503;SDS011;13410;52.114;5.718;2023-09-07T10:00:15;6.03;;;3.40;;
25503;SDS011;13410;52.114;5.718;2023-09-07T10:02:41;5.50;;;3.88;;
25503;SDS011;13410;52.114;5.718;2023-09-07T10:05:09;5.97;;;3.80;;
25503;SDS011;13410;52.114;5.718;2023-09-07T10:07:42;5.05;;;3.83;;
25503;SDS011;13410;52.114;5.718;2023-09-07T10:10:09;7.28;;;3.63;;
25503;SDS011;13410;52.114;5.718;2023-09-07T10:12:44;4.35;;;3.60;;
25503;SDS011;13410;52.114;5.718;2023-09-07T10:15:25;4.85;;;3.70;;
25503;SDS011;13410;52.114;5.718;2023-09-07T10:20:57;6.80;;;3.80;;
25503;SDS011;13410;52.114;5.718;2023-09-07T10:23:35;4.65;;;3.67;;
25503;SDS011;13410;52.114;5.718;2023-09-07T10:26:09;5.68;;;4.07;;
25503;SDS011;13410;52.114;5.718;2023-09-07T10:28:39;6.30;;;4.00;;
25503;SDS011;13410;52.114;5.718;2023-09-07T10:31:06;6.07;;;3.80;;
25503;SDS011;13410;52.114;5.718;2023-09-07T10:33:35;4.30;;;3.80;;
25503;SDS011;13410;52.114;5.718;2023-09-07T10:36:01;5.10;;;3.97;;
25503;SDS011;13410;52.114;5.718;2023-09-07T10:38:36;6.97;;;3.35;;
25503;SDS011;13410;52.114;5.718;2023-09-07T10:41:02;5.38;;;3.95;;
25503;SDS011;13410;52.114;5.718;2023-09-07T10:43:29;4.10;;;3.53;;
25503;SDS011;13410;52.114;5.718;2023-09-07T10:45:56;8.60;;;4.00;;
25503;SDS011;13410;52.114;5.718;2023-09-07T10:48:23;6.40;;;4.43;;
25503;SDS011;13410;52.114;5.718;2023-09-07T10:50:50;4.60;;;3.55;;
25503;SDS011;13410;52.114;5.718;2023-09-07T10:53:24;4.32;;;3.78;;
25503;SDS011;13410;52.114;5.718;2023-09-07T10:55:54;5.00;;;3.80;;
25503;SDS011;13410;52.114;5.718;2023-09-07T10:58:25;5.75;;;3.60;;
25503;SDS011;13410;52.114;5.718;2023-09-07T11:00:55;5.10;;;3.80;;
25503;SDS011;13410;52.114;5.718;2023-09-07T11:03:21;4.13;;;3.72;;
25503;SDS011;13410;52.114;5.718;2023-09-07T11:05:48;5.70;;;3.92;;
25503;SDS011;13410;52.114;5.718;2023-09-07T11:08:18;6.07;;;4.05;;
25503;SDS011;13410;52.114;5.718;2023-09-07T11:10:44;5.65;;;4.00;;
25503;SDS011;13410;52.114;5.718;2023-09-07T11:13:10;5.57;;;3.90;;
25503;SDS011;13410;52.114;5.718;2023-09-07T11:15:37;7.22;;;3.90;;
25503;SDS011;13410;52.114;5.718;2023-09-07T11:18:07;7.65;;;3.90;;
25503;SDS011;13410;52.114;5.718;2023-09-07T11:20:34;6.47;;;3.97;;
25503;SDS011;13410;52.114;5.718;2023-09-07T11:23:00;7.53;;;3.85;;
25503;SDS011;13410;52.114;5.718;2023-09-07T11:25:33;5.70;;;4.00;;
25503;SDS011;13410;52.114;5.718;2023-09-07T11:28:03;5.38;;;4.10;;
25503;SDS011;13410;52.114;5.718;2023-09-07T11:33:00;5.25;;;3.88;;
25503;SDS011;13410;52.114;5.718;2023-09-07T11:35:34;6.07;;;3.90;;
25503;SDS011;13410;52.114;5.718;2023-09-07T11:38:00;6.43;;;3.67;;
25503;SDS011;13410;52.114;5.718;2023-09-07T11:40:28;4.03;;;3.53;;
25503;SDS011;13410;52.114;5.718;2023-09-07T11:42:55;5.22;;;3.50;;
25503;SDS011;13410;52.114;5.718;2023-09-07T11:45:21;7.70;;;4.03;;
25503;SDS011;13410;52.114;5.718;2023-09-07T11:47:46;6.85;;;4.00;;
25503;SDS011;13410;52.114;5.718;2023-09-07T11:50:12;5.05;;;3.80;;
25503;SDS011;13410;52.114;5.718;2023-09-07T11:52:38;4.70;;;3.83;;
25503;SDS011;13410;52.114;5.718;2023-09-07T11:55:03;5.50;;;3.60;;
25503;SDS011;13410;52.114;5.718;2023-09-07T11:57:30;4.07;;;3.60;;
25503;SDS011;13410;52.114;5.718;2023-09-07T11:59:56;9.85;;;3.67;;
25503;SDS011;13410;52.114;5.718;2023-09-07T12:02:21;7.55;;;3.78;;
25503;SDS011;13410;52.114;5.718;2023-09-07T12:04:47;4.38;;;3.80;;
25503;SDS011;13410;52.114;5.718;2023-09-07T12:07:13;5.78;;;3.90;;
25503;SDS011;13410;52.114;5.718;2023-09-07T12:09:39;7.03;;;3.65;;
25503;SDS011;13410;52.114;5.718;2023-09-07T12:12:05;5.90;;;4.00;;
25503;SDS011;13410;52.114;5.718;2023-09-07T12:14:31;4.07;;;3.60;;
25503;SDS011;13410;52.114;5.718;2023-09-07T12:16:57;5.65;;;3.47;;
25503;SDS011;13410;52.114;5.718;2023-09-07T12:19:22;5.90;;;3.58;;
25503;SDS011;13410;52.114;5.718;2023-09-07T12:21:48;5.45;;;3.50;;
25503;SDS011;13410;52.114;5.718;2023-09-07T12:24:16;4.57;;;3.83;;
25503;SDS011;13410;52.114;5.718;2023-09-07T12:26:42;4.90;;;3.35;;
25503;SDS011;13410;52.114;5.718;2023-09-07T12:29:08;4.57;;;3.60;;
25503;SDS011;13410;52.114;5.718;2023-09-07T12:31:35;5.30;;;3.47;;
25503;SDS011;13410;52.114;5.718;2023-09-07T12:34:00;5.10;;;3.50;;
25503;SDS011;13410;52.114;5.718;2023-09-07T12:36:26;4.80;;;3.42;;
25503;SDS011;13410;52.114;5.718;2023-09-07T12:38:54;7.13;;;3.58;;
25503;SDS011;13410;52.114;5.718;2023-09-07T12:41:24;4.90;;;3.63;;
25503;SDS011;13410;52.114;5.718;2023-09-07T12:43:49;4.45;;;3.92;;
25503;SDS011;13410;52.114;5.718;2023-09-07T12:46:15;6.13;;;3.80;;
25503;SDS011;13410;52.114;5.718;2023-09-07T12:48:40;6.63;;;3.50;;
25503;SDS011;13410;52.114;5.718;2023-09-07T12:51:06;4.88;;;3.40;;
25503;SDS011;13410;52.114;5.718;2023-09-07T12:53:31;4.20;;;3.58;;
25503;SDS011;13410;52.114;5.718;2023-09-07T12:55:58;6.45;;;3.25;;
25503;SDS011;13410;52.114;5.718;2023-09-07T12:58:26;6.65;;;3.60;;
25503;SDS011;13410;52.114;5.718;2023-09-07T13:00:51;4.60;;;3.40;;
25503;SDS011;13410;52.114;5.718;2023-09-07T13:03:17;5.43;;;3.63;;
25503;SDS011;13410;52.114;5.718;2023-09-07T13:05:43;4.50;;;3.65;;
25503;SDS011;13410;52.114;5.718;2023-09-07T13:08:09;6.30;;;3.83;;
25503;SDS011;13410;52.114;5.718;2023-09-07T13:10:35;4.80;;;3.63;;
25503;SDS011;13410;52.114;5.718;2023-09-07T13:13:00;5.68;;;3.88;;
25503;SDS011;13410;52.114;5.718;2023-09-07T13:15:26;6.53;;;3.83;;
25503;SDS011;13410;52.114;5.718;2023-09-07T13:17:51;5.75;;;4.10;;
25503;SDS011;13410;52.114;5.718;2023-09-07T13:20:17;7.13;;;4.18;;
25503;SDS011;13410;52.114;5.718;2023-09-07T13:22:46;4.50;;;3.67;;
25503;SDS011;13410;52.114;5.718;2023-09-07T13:25:11;5.68;;;3.72;;
25503;SDS011;13410;52.114;5.718;2023-09-07T13:27:37;5.68;;;3.70;;
25503;SDS011;13410;52.114;5.718;2023-09-07T13:30:03;6.45;;;3.88;;
25503;SDS011;13410;52.114;5.718;2023-09-07T13:32:30;5.63;;;4.00;;
25503;SDS011;13410;52.114;5.718;2023-09-07T13:34:57;5.93;;;3.80;;
25503;SDS011;13410;52.114;5.718;2023-09-07T13:37:23;5.80;;;3.60;;
25503;SDS011;13410;52.114;5.718;2023-09-07T13:39:48;5.32;;;3.78;;
25503;SDS011;13410;52.114;5.718;2023-09-07T13:42:14;6.32;;;3.70;;
25503;SDS011;13410;52.114;5.718;2023-09-07T13:44:40;8.63;;;4.00;;
25503;SDS011;13410;52.114;5.718;2023-09-07T13:47:06;4.93;;;4.10;;
25503;SDS011;13410;52.114;5.718;2023-09-07T13:49:33;4.13;;;3.72;;
25503;SDS011;13410;52.114;5.718;2023-09-07T13:51:59;6.05;;;3.78;;
25503;SDS011;13410;52.114;5.718;2023-09-07T13:54:24;5.45;;;4.20;;
25503;SDS011;13410;52.114;5.718;2023-09-07T13:56:50;6.47;;;4.07;;
25503;SDS011;13410;52.114;5.718;2023-09-07T13:59:15;5.95;;;4.10;;
25503;SDS011;13410;52.114;5.718;2023-09-07T14:01:42;6.28;;;4.20;;
25503;SDS011;13410;52.114;5.718;2023-09-07T14:04:07;5.45;;;4.28;;
25503;SDS011;13410;52.114;5.718;2023-09-07T14:06:34;5.70;;;4.15;;
25503;SDS011;13410;52.114;5.718;2023-09-07T14:09:00;6.30;;;4.10;;
25503;SDS011;13410;52.114;5.718;2023-09-07T14:11:25;4.85;;;4.20;;
25503;SDS011;13410;52.114;5.718;2023-09-07T14:13:52;4.60;;;4.10;;
25503;SDS011;13410;52.114;5.718;2023-09-07T14:16:19;7.38;;;4.25;;
25503;SDS011;13410;52.114;5.718;2023-09-07T14:18:46;5.50;;;4.60;;
25503;SDS011;13410;52.114;5.718;2023-09-07T14:21:15;4.50;;;4.10;;
25503;SDS011;13410;52.114;5.718;2023-09-07T14:23:42;8.93;;;4.30;;
25503;SDS011;13410;52.114;5.718;2023-09-07T14:26:10;5.60;;;3.72;;
25503;SDS011;13410;52.114;5.718;2023-09-07T14:28:35;7.65;;;4.05;;
25503;SDS011;13410;52.114;5.718;2023-09-07T14:31:02;6.55;;;4.40;;
25503;SDS011;13410;52.114;5.718;2023-09-07T14:33:31;6.68;;;4.20;;
25503;SDS011;13410;52.114;5.718;2023-09-07T14:35:57;5.20;;;4.43;;
25503;SDS011;13410;52.114;5.718;2023-09-07T14:38:23;7.68;;;4.30;;
25503;SDS011;13410;52.114;5.718;2023-09-07T14:40:49;5.13;;;3.97;;
25503;SDS011;13410;52.114;5.718;2023-09-07T14:43:16;6.15;;;4.25;;
25503;SDS011;13410;52.114;5.718;2023-09-07T14:45:43;4.82;;;4.10;;
25503;SDS011;13410;52.114;5.718;2023-09-07T14:48:09;6.85;;;3.90;;